createdAt,value
2018-07-21T00:00:04.489Z,26.30
2018-07-21T00:02:40.714Z,26.10
2018-07-21T00:05:11.143Z,25.90
2018-07-21T00:10:39.933Z,26.00
2018-07-21T00:13:13.394Z,25.90
2018-07-21T00:15:44.095Z,26.00
2018-07-21T00:18:14.449Z,25.90
2018-07-21T00:20:46.314Z,25.90
2018-07-21T00:23:15.869Z,25.30
2018-07-21T00:28:35.452Z,24.20
2018-07-21T00:31:13.313Z,24.40
2018-07-21T00:34:06.229Z,24.80
2018-07-21T00:36:39.003Z,24.90
2018-07-21T00:39:17.343Z,24.80
2018-07-21T00:41:49.463Z,25.10
2018-07-21T00:44:20.665Z,25.50
2018-07-21T00:46:50.593Z,25.60
2018-07-21T00:49:20.166Z,25.60
2018-07-21T00:51:52.243Z,25.10
2018-07-21T00:54:36.466Z,25.00
2018-07-21T00:57:11.621Z,25.20
2018-07-21T00:59:55.998Z,24.70
2018-07-21T01:02:29.498Z,25.10
2018-07-21T01:05:01.472Z,25.20
2018-07-21T01:07:31.193Z,24.90
2018-07-21T01:10:09.483Z,25.00
2018-07-21T01:12:48.354Z,25.40
2018-07-21T01:15:39.158Z,25.60
2018-07-21T01:18:15.918Z,25.70
2018-07-21T01:20:51.787Z,25.30
2018-07-21T01:23:38.072Z,25.50
2018-07-21T01:26:37.906Z,25.20
2018-07-21T01:29:14.418Z,25.50
2018-07-21T01:32:01.171Z,25.30
2018-07-21T01:34:31.368Z,25.10
2018-07-21T01:39:47.714Z,24.40
2018-07-21T01:42:17.332Z,24.70
2018-07-21T01:44:47.155Z,24.90
2018-07-21T01:47:19.171Z,25.20
2018-07-21T01:50:04.785Z,25.30
2018-07-21T01:55:47.229Z,24.90
2018-07-21T01:58:17.319Z,24.80
2018-07-21T02:00:51.352Z,25.10
2018-07-21T02:03:38.519Z,25.30
2018-07-21T02:06:12.226Z,25.20
2018-07-21T02:08:51.915Z,24.90
2018-07-21T02:11:42.063Z,24.90
2018-07-21T02:14:23.391Z,25.00
2018-07-21T02:16:54.029Z,25.00
2018-07-21T02:19:33.703Z,24.10
2018-07-21T02:22:07.169Z,24.10
2018-07-21T02:24:37.608Z,24.20
2018-07-21T02:27:11.336Z,24.30
2018-07-21T02:29:41.731Z,24.60
2018-07-21T02:32:13.144Z,24.60
2018-07-21T02:34:46.876Z,24.90
2018-07-21T02:37:17.486Z,24.70
2018-07-21T02:40:52.055Z,24.20
2018-07-21T02:43:21.707Z,23.60
2018-07-21T02:45:51.409Z,24.60
2018-07-21T02:48:21.475Z,24.80
2018-07-21T02:50:53.815Z,25.00
2018-07-21T02:53:43.624Z,25.00
2018-07-21T02:56:29.595Z,24.90
2018-07-21T02:59:10.111Z,24.70
2018-07-21T03:01:47.333Z,23.70
2018-07-21T03:04:18.906Z,24.20
2018-07-21T03:06:50.628Z,24.20
2018-07-21T03:09:22.656Z,24.20
2018-07-21T03:11:53.124Z,24.30
2018-07-21T03:14:24.219Z,24.30
2018-07-21T03:16:54.716Z,24.10
2018-07-21T03:19:25.076Z,24.00
2018-07-21T03:21:54.781Z,24.00
2018-07-21T03:24:25.728Z,23.90
2018-07-21T03:27:14.400Z,24.00
2018-07-21T03:33:07.981Z,23.80
2018-07-21T03:35:47.138Z,23.80
2018-07-21T03:38:17.368Z,23.80
2018-07-21T03:40:47.897Z,23.80
2018-07-21T03:43:32.829Z,23.80
2018-07-21T03:46:10.328Z,23.70
2018-07-21T03:51:33.925Z,23.60
2018-07-21T03:54:10.080Z,23.70
2018-07-21T03:56:47.219Z,23.60
2018-07-21T03:59:17.128Z,23.60
2018-07-21T04:01:55.299Z,23.50
2018-07-21T04:04:29.961Z,23.50
2018-07-21T04:07:10.435Z,23.50
2018-07-21T04:09:42.793Z,23.50
2018-07-21T04:15:22.478Z,23.60
2018-07-21T04:17:52.306Z,23.50
2018-07-21T04:20:24.207Z,23.50
2018-07-21T04:23:17.649Z,23.40
2018-07-21T04:25:49.616Z,23.40
2018-07-21T04:28:40.636Z,23.50
2018-07-21T04:35:33.259Z,23.70
2018-07-21T04:38:17.498Z,23.30
2018-07-21T04:43:36.428Z,23.50
2018-07-21T04:46:13.546Z,23.90
2018-07-21T04:49:09.739Z,23.90
2018-07-21T04:54:35.672Z,23.80
2018-07-21T04:57:28.320Z,23.80
2018-07-21T04:59:59.362Z,23.10
2018-07-21T05:02:30.033Z,22.00
2018-07-21T05:05:10.938Z,22.90
2018-07-21T05:07:41.299Z,24.00
2018-07-21T05:10:11.852Z,24.20
2018-07-21T05:12:45.606Z,25.00
2018-07-21T05:15:19.474Z,25.50
2018-07-21T05:17:52.169Z,26.10
2018-07-21T05:20:23.688Z,25.50
2018-07-21T05:23:06.239Z,25.10
2018-07-21T05:25:40.714Z,25.00
2018-07-21T05:28:15.901Z,24.90
2018-07-21T05:33:30.242Z,25.10
2018-07-21T05:36:00.860Z,25.10
2018-07-21T05:38:36.087Z,25.20
2018-07-21T05:41:10.855Z,25.20
2018-07-21T05:43:46.194Z,25.20
2018-07-21T05:46:17.220Z,25.20
2018-07-21T05:48:46.937Z,25.00
2018-07-21T05:51:17.125Z,25.50
2018-07-21T05:54:07.778Z,25.40
2018-07-21T05:56:43.101Z,25.50
2018-07-21T05:59:27.947Z,24.90
2018-07-21T06:04:41.397Z,28.20
2018-07-21T06:07:18.289Z,29.40
2018-07-21T06:09:51.807Z,30.00
2018-07-21T06:12:21.421Z,29.10
2018-07-21T06:14:51.111Z,28.90
2018-07-21T06:17:25.866Z,27.00
2018-07-21T06:19:58.200Z,26.20
2018-07-21T06:22:34.080Z,25.70
2018-07-21T06:25:12.435Z,25.50
2018-07-21T06:27:47.277Z,25.50
2018-07-21T06:32:59.001Z,26.80
2018-07-21T06:35:33.911Z,27.80
2018-07-21T06:38:04.190Z,29.50
2018-07-21T06:40:34.157Z,29.90
2018-07-21T06:43:04.141Z,30.40
2018-07-21T06:45:38.772Z,30.50
2018-07-21T06:50:50.530Z,29.40
2018-07-21T06:53:21.163Z,28.70
2018-07-21T06:55:50.909Z,28.20
2018-07-21T06:58:20.560Z,28.60
2018-07-21T07:03:36.585Z,30.20
2018-07-21T07:06:09.059Z,29.00
2018-07-21T07:08:42.025Z,29.80
2018-07-21T07:11:12.798Z,30.60
2018-07-21T07:13:43.022Z,31.50
2018-07-21T07:19:11.939Z,29.50
2018-07-21T07:21:42.369Z,30.20
2018-07-21T07:24:31.669Z,29.50
2018-07-21T07:27:18.074Z,28.80
2018-07-21T07:29:49.207Z,28.60
2018-07-21T07:32:20.673Z,28.40
2018-07-21T07:34:52.355Z,29.00
2018-07-21T07:37:25.659Z,29.80
2018-07-21T07:39:55.994Z,30.00
2018-07-21T07:42:27.227Z,29.80
2018-07-21T07:45:08.581Z,31.30
2018-07-21T07:47:40.282Z,32.00
2018-07-21T07:50:12.121Z,30.90
2018-07-21T07:52:42.229Z,31.20
2018-07-21T07:55:16.129Z,31.40
2018-07-21T07:57:45.575Z,30.30
2018-07-21T08:00:20.425Z,30.20
2018-07-21T08:02:49.969Z,29.60
2018-07-21T08:05:22.139Z,30.50
2018-07-21T08:07:57.875Z,28.50
2018-07-21T08:10:39.938Z,29.10
2018-07-21T08:13:12.491Z,29.70
2018-07-21T08:15:57.488Z,30.00
2018-07-21T08:18:27.823Z,31.30
2018-07-21T08:21:17.398Z,32.80
2018-07-21T08:24:00.990Z,33.50
2018-07-21T08:26:34.061Z,31.70
2018-07-21T08:29:04.524Z,30.40
2018-07-21T08:31:34.341Z,31.60
2018-07-21T08:34:12.349Z,31.70
2018-07-21T08:36:47.178Z,32.40
2018-07-21T08:39:17.540Z,31.50
2018-07-21T08:41:48.002Z,32.60
2018-07-21T08:44:17.492Z,33.10
2018-07-21T08:46:55.421Z,33.30
2018-07-21T08:49:32.522Z,34.10
2018-07-21T08:52:02.065Z,33.10
2018-07-21T08:54:40.387Z,34.70
2018-07-21T09:00:13.864Z,35.30
2018-07-21T09:03:00.636Z,33.30
2018-07-21T09:05:47.574Z,33.10
2018-07-21T09:08:16.576Z,32.80
2018-07-21T09:10:45.466Z,34.20
2018-07-21T09:13:14.475Z,34.00
2018-07-21T09:15:43.397Z,34.30
2018-07-21T09:18:12.444Z,35.00
2018-07-21T09:20:41.389Z,35.30
2018-07-21T09:23:10.349Z,34.90
2018-07-21T09:25:39.448Z,34.20
2018-07-21T09:28:08.653Z,34.30
2018-07-21T09:30:37.905Z,34.50
2018-07-21T09:33:07.173Z,34.80
2018-07-21T09:35:36.205Z,35.20
2018-07-21T09:38:05.260Z,33.90
2018-07-21T09:40:34.223Z,33.80
2018-07-21T09:43:03.140Z,33.40
2018-07-21T09:45:32.057Z,33.00
2018-07-21T09:48:00.924Z,33.80
2018-07-21T09:50:29.865Z,34.20
2018-07-21T09:52:58.789Z,34.20
2018-07-21T09:55:27.830Z,33.60
2018-07-21T09:57:56.856Z,34.50
2018-07-21T10:00:30.990Z,34.40
2018-07-21T10:02:59.911Z,31.80
2018-07-21T10:05:28.884Z,31.20
2018-07-21T10:07:57.867Z,31.70
2018-07-21T10:10:26.944Z,32.00
2018-07-21T10:12:55.973Z,33.50
2018-07-21T10:15:24.882Z,33.90
2018-07-21T10:17:53.856Z,33.80
2018-07-21T10:20:22.751Z,34.50
2018-07-21T10:22:51.708Z,34.70
2018-07-21T10:25:25.637Z,35.10
2018-07-21T10:27:59.753Z,34.20
2018-07-21T10:30:28.629Z,33.50
2018-07-21T10:32:57.556Z,34.30
2018-07-21T10:35:26.469Z,33.90
2018-07-21T10:37:55.524Z,34.30
2018-07-21T10:40:24.429Z,34.40
2018-07-21T10:42:53.371Z,34.40
2018-07-21T10:45:22.262Z,34.80
2018-07-21T10:47:51.173Z,34.10
2018-07-21T10:50:20.070Z,34.20
2018-07-21T10:52:48.980Z,32.60
2018-07-21T10:55:17.853Z,32.60
2018-07-21T10:57:46.747Z,33.70
2018-07-21T11:00:15.657Z,34.40
2018-07-21T11:02:44.584Z,34.30
2018-07-21T11:05:13.512Z,34.20
2018-07-21T11:07:42.522Z,34.30
2018-07-21T11:10:11.941Z,34.40
2018-07-21T11:12:41.172Z,34.20
2018-07-21T11:15:10.273Z,33.80
2018-07-21T11:17:39.352Z,33.50
2018-07-21T11:20:08.345Z,33.90
2018-07-21T11:22:37.453Z,34.00
2018-07-21T11:25:07.300Z,32.60
2018-07-21T11:27:36.321Z,31.80
2018-07-21T11:30:06.209Z,31.00
2018-07-21T11:32:35.176Z,30.80
2018-07-21T11:35:04.645Z,30.30
2018-07-21T11:37:33.536Z,30.20
2018-07-21T11:40:02.480Z,30.30
2018-07-21T11:42:31.332Z,30.20
2018-07-21T11:45:00.232Z,28.70
2018-07-21T11:47:29.105Z,29.80
2018-07-21T11:49:58.044Z,29.00
2018-07-21T11:52:26.968Z,29.90
2018-07-21T11:54:55.898Z,30.20
2018-07-21T11:57:24.833Z,30.80
2018-07-21T11:59:53.797Z,31.00
2018-07-21T12:02:22.676Z,31.70
2018-07-21T12:04:51.598Z,31.80
2018-07-21T12:07:20.488Z,31.80
2018-07-21T12:09:49.458Z,31.40
2018-07-21T12:12:18.401Z,31.40
2018-07-21T12:14:47.349Z,31.20
2018-07-21T12:17:16.417Z,31.50
2018-07-21T12:19:45.427Z,31.40
2018-07-21T12:22:14.328Z,31.20
2018-07-21T12:24:43.292Z,30.80
2018-07-21T12:27:12.187Z,31.10
2018-07-21T12:29:41.252Z,31.40
2018-07-21T12:32:10.137Z,31.00
2018-07-21T12:34:39.062Z,31.50
2018-07-21T12:37:07.948Z,31.60
2018-07-21T12:39:36.848Z,32.00
2018-07-21T12:42:05.794Z,32.00
2018-07-21T12:44:34.713Z,31.60
2018-07-21T12:47:03.618Z,31.60
2018-07-21T12:49:32.589Z,31.30
2018-07-21T12:52:01.489Z,32.00
2018-07-21T12:54:30.429Z,31.60
2018-07-21T12:56:59.304Z,31.30
2018-07-21T12:59:28.251Z,31.80
2018-07-21T13:01:57.180Z,31.30
2018-07-21T13:04:26.155Z,31.30
2018-07-21T13:06:55.236Z,31.50
2018-07-21T13:09:24.285Z,32.10
2018-07-21T13:11:53.288Z,31.60
2018-07-21T13:14:22.300Z,32.30
2018-07-21T13:16:51.237Z,32.50
2018-07-21T13:19:20.156Z,31.80
2018-07-21T13:21:49.084Z,31.50
2018-07-21T13:24:17.963Z,31.90
2018-07-21T13:26:46.892Z,32.30
2018-07-21T13:29:15.765Z,31.80
2018-07-21T13:31:44.766Z,32.10
2018-07-21T13:34:13.664Z,32.00
2018-07-21T13:36:42.572Z,32.00
2018-07-21T13:39:12.540Z,31.10
2018-07-21T13:41:41.485Z,31.30
2018-07-21T13:44:10.485Z,31.60
2018-07-21T13:46:39.829Z,32.00
2018-07-21T13:49:09.035Z,30.80
2018-07-21T13:51:38.129Z,30.80
2018-07-21T13:54:07.325Z,29.60
2018-07-21T13:56:36.387Z,29.60
2018-07-21T13:59:05.412Z,29.60
2018-07-21T14:01:34.661Z,30.60
2018-07-21T14:04:03.720Z,30.70
2018-07-21T14:06:32.894Z,30.10
2018-07-21T14:09:01.842Z,30.40
2018-07-21T14:11:30.816Z,30.00
2018-07-21T14:13:59.708Z,30.70
2018-07-21T14:16:28.668Z,31.10
2018-07-21T14:18:57.571Z,30.60
2018-07-21T14:21:26.591Z,30.80
2018-07-21T14:23:55.824Z,30.80
2018-07-21T14:26:24.871Z,30.80
2018-07-21T14:28:53.822Z,31.00
2018-07-21T14:31:22.780Z,31.10
2018-07-21T14:33:51.705Z,31.70
2018-07-21T14:36:20.767Z,31.50
2018-07-21T14:38:49.651Z,30.50
2018-07-21T14:41:18.700Z,30.90
2018-07-21T14:43:47.717Z,31.40
2018-07-21T14:46:16.641Z,31.60
2018-07-21T14:48:45.674Z,31.90
2018-07-21T14:51:14.577Z,31.80
2018-07-21T14:53:43.532Z,31.60
2018-07-21T14:56:12.453Z,31.70
2018-07-21T14:58:41.385Z,31.50
2018-07-21T15:01:14.049Z,30.80
2018-07-21T15:03:43.060Z,31.20
2018-07-21T15:06:12.043Z,31.80
2018-07-21T15:08:41.014Z,31.40
2018-07-21T15:11:09.916Z,31.40
2018-07-21T15:13:38.831Z,31.70
2018-07-21T15:16:07.757Z,31.70
2018-07-21T15:18:36.648Z,31.70
2018-07-21T15:21:05.549Z,31.80
2018-07-21T15:23:34.533Z,31.40
2018-07-21T15:26:03.484Z,30.90
2018-07-21T15:28:32.872Z,31.20
2018-07-21T15:31:01.853Z,31.60
2018-07-21T15:33:30.886Z,31.30
2018-07-21T15:35:59.812Z,31.50
2018-07-21T15:38:28.772Z,31.40
2018-07-21T15:40:57.668Z,31.60
2018-07-21T15:43:26.583Z,31.40
2018-07-21T15:45:55.469Z,31.10
2018-07-21T15:48:24.336Z,31.20
2018-07-21T15:50:53.281Z,31.50
2018-07-21T15:53:22.137Z,31.80
2018-07-21T15:55:51.028Z,31.40
2018-07-21T15:58:20.032Z,30.30
2018-07-21T16:00:49.108Z,30.70
2018-07-21T16:03:18.049Z,30.70
2018-07-21T16:05:47.172Z,31.50
2018-07-21T16:08:16.282Z,31.40
2018-07-21T16:10:45.476Z,31.50
2018-07-21T16:13:14.823Z,32.10
2018-07-21T16:15:43.996Z,32.10
2018-07-21T16:18:13.006Z,31.70
2018-07-21T16:20:42.057Z,31.90
2018-07-21T16:23:10.943Z,31.60
2018-07-21T16:25:39.880Z,32.00
2018-07-21T16:28:08.782Z,31.30
2018-07-21T16:30:37.645Z,31.80
2018-07-21T16:33:06.605Z,31.60
2018-07-21T16:35:35.593Z,32.00
2018-07-21T16:38:04.616Z,32.10
2018-07-21T16:40:33.532Z,31.70
2018-07-21T16:43:02.592Z,31.60
2018-07-21T16:45:31.525Z,30.80
2018-07-21T16:48:00.476Z,30.90
2018-07-21T16:50:29.373Z,30.80
2018-07-21T16:52:58.299Z,30.40
2018-07-21T16:55:27.273Z,29.70
2018-07-21T16:57:56.180Z,30.50
2018-07-21T17:00:25.049Z,30.90
2018-07-21T17:02:53.968Z,31.10
2018-07-21T17:05:22.848Z,30.90
2018-07-21T17:07:51.723Z,30.40
2018-07-21T17:10:20.660Z,30.60
2018-07-21T17:12:49.545Z,28.80
2018-07-21T17:15:18.577Z,28.60
2018-07-21T17:17:47.684Z,28.90
2018-07-21T17:20:16.710Z,28.30
2018-07-21T17:22:45.904Z,27.90
2018-07-21T17:25:14.934Z,28.40
2018-07-21T17:27:44.037Z,29.00
2018-07-21T17:30:13.077Z,29.20
2018-07-21T17:32:42.041Z,29.40
2018-07-21T17:35:10.959Z,28.60
2018-07-21T17:37:39.805Z,26.00
2018-07-21T17:40:08.744Z,25.40
2018-07-21T17:42:37.633Z,26.50
2018-07-21T17:45:06.581Z,27.10
2018-07-21T17:47:35.513Z,26.90
2018-07-21T17:50:04.736Z,27.50
2018-07-21T17:52:33.839Z,26.70
2018-07-21T17:55:02.909Z,26.90
2018-07-21T17:57:31.870Z,27.10
2018-07-21T18:00:00.841Z,26.00
2018-07-21T18:02:29.819Z,25.70
2018-07-21T18:04:58.685Z,26.90
2018-07-21T18:07:27.639Z,27.50
2018-07-21T18:09:56.576Z,27.10
2018-07-21T18:12:25.521Z,26.20
2018-07-21T18:14:54.436Z,26.70
2018-07-21T18:17:23.365Z,25.80
2018-07-21T18:19:52.241Z,25.60
2018-07-21T18:22:21.232Z,24.70
2018-07-21T18:24:50.428Z,24.50
2018-07-21T18:27:19.627Z,25.50
2018-07-21T18:29:48.600Z,26.50
2018-07-21T18:32:17.824Z,25.60
2018-07-21T18:34:46.878Z,24.90
2018-07-21T18:37:15.948Z,25.70
2018-07-21T18:39:45.234Z,25.80
2018-07-21T18:42:14.200Z,26.70
2018-07-21T18:44:43.297Z,25.50
2018-07-21T18:47:12.209Z,25.60
2018-07-21T18:49:41.156Z,25.20
2018-07-21T18:52:10.108Z,25.40
2018-07-21T18:54:39.056Z,25.40
2018-07-21T18:57:07.976Z,25.30
2018-07-21T18:59:36.888Z,25.10
2018-07-21T19:02:05.824Z,26.00
2018-07-21T19:04:34.885Z,24.70
2018-07-21T19:07:03.770Z,24.20
2018-07-21T19:09:32.804Z,24.50
2018-07-21T19:12:06.910Z,24.30
2018-07-21T19:14:35.884Z,24.50
2018-07-21T19:17:04.821Z,24.80
2018-07-21T19:19:39.104Z,25.00
2018-07-21T19:22:07.977Z,24.50
2018-07-21T19:24:36.882Z,24.70
2018-07-21T19:27:10.989Z,24.30
2018-07-21T19:29:39.926Z,25.50
2018-07-21T19:32:14.094Z,25.30
2018-07-21T19:34:43.085Z,24.80
2018-07-21T19:37:17.012Z,24.70
2018-07-21T19:39:46.224Z,25.40
2018-07-21T19:42:15.257Z,25.40
2018-07-21T19:44:44.339Z,26.20
2018-07-21T19:47:13.576Z,25.50
2018-07-21T19:49:42.573Z,24.80
2018-07-21T19:52:11.484Z,25.50
2018-07-21T19:54:40.424Z,26.00
2018-07-21T19:57:09.324Z,25.50
2018-07-21T19:59:38.323Z,25.50
2018-07-21T20:02:07.257Z,26.00
2018-07-21T20:04:36.149Z,26.20
2018-07-21T20:07:05.064Z,26.30
2018-07-21T20:09:33.981Z,26.40
2018-07-21T20:12:02.888Z,26.30
2018-07-21T20:14:31.784Z,26.30
2018-07-21T20:17:00.699Z,26.20
2018-07-21T20:19:29.632Z,26.30
2018-07-21T20:21:58.568Z,26.30
2018-07-21T20:24:27.477Z,26.20
2018-07-21T20:26:56.408Z,26.20
2018-07-21T20:29:25.293Z,26.00
2018-07-21T20:31:54.225Z,26.00
2018-07-21T20:34:23.282Z,26.10
2018-07-21T20:36:52.008Z,26.00
2018-07-21T20:39:20.716Z,25.90
2018-07-21T20:41:49.418Z,26.00
2018-07-21T20:44:18.123Z,25.80
2018-07-21T20:46:46.856Z,25.80
2018-07-21T20:49:15.643Z,25.50
2018-07-21T20:51:44.469Z,25.40
2018-07-21T20:54:13.206Z,25.20
2018-07-21T20:56:41.917Z,25.70
2018-07-21T20:59:10.571Z,25.80
2018-07-21T21:01:39.280Z,25.90
2018-07-21T21:04:08.225Z,25.70
2018-07-21T21:06:37.254Z,25.70
2018-07-21T21:09:08.426Z,24.30
2018-07-21T21:11:37.366Z,24.80
2018-07-21T21:14:06.320Z,25.00
2018-07-21T21:16:35.392Z,25.40
2018-07-21T21:19:04.492Z,24.60
2018-07-21T21:21:33.418Z,25.10
2018-07-21T21:24:02.399Z,25.40
2018-07-21T21:26:31.288Z,25.60
2018-07-21T21:29:00.272Z,25.70
2018-07-21T21:31:29.241Z,25.60
2018-07-21T21:33:58.174Z,25.70
2018-07-21T21:36:27.108Z,25.70
2018-07-21T21:38:56.061Z,25.70
2018-07-21T21:41:24.948Z,25.70
2018-07-21T21:43:53.889Z,25.70
2018-07-21T21:46:22.779Z,25.50
2018-07-21T21:48:51.761Z,25.50
2018-07-21T21:51:20.821Z,25.50
2018-07-21T21:53:49.957Z,25.60
2018-07-21T21:56:18.909Z,25.50
2018-07-21T21:58:48.261Z,25.50
2018-07-21T22:01:17.312Z,25.60
2018-07-21T22:03:46.409Z,25.30
2018-07-21T22:06:15.566Z,25.20
2018-07-21T22:08:44.576Z,24.80
2018-07-21T22:11:13.669Z,25.00
2018-07-21T22:13:42.574Z,25.10
2018-07-21T22:16:11.581Z,24.70
2018-07-21T22:18:40.516Z,24.70
2018-07-21T22:21:09.432Z,24.70
2018-07-21T22:23:38.306Z,24.70
2018-07-21T22:26:07.305Z,24.70
2018-07-21T22:28:36.260Z,24.80
2018-07-21T22:31:05.209Z,24.50
2018-07-21T22:33:34.132Z,24.20
2018-07-21T22:36:03.017Z,24.70
2018-07-21T22:38:31.981Z,25.00
2018-07-21T22:41:00.902Z,24.80
2018-07-21T22:43:29.902Z,24.60
2018-07-21T22:45:58.712Z,24.70
2018-07-21T22:48:27.597Z,24.80
2018-07-21T22:50:56.524Z,24.70
2018-07-21T22:53:25.473Z,24.70
2018-07-21T22:55:54.365Z,24.90
2018-07-21T22:58:23.277Z,24.70
2018-07-21T23:00:52.444Z,24.70
2018-07-21T23:03:21.448Z,24.60
2018-07-21T23:05:50.388Z,24.50
2018-07-21T23:08:19.463Z,24.20
2018-07-21T23:10:48.520Z,24.20
2018-07-21T23:13:17.520Z,24.30
2018-07-21T23:15:46.611Z,24.50
2018-07-21T23:18:15.741Z,24.40
2018-07-21T23:20:44.891Z,24.50
2018-07-21T23:23:13.977Z,24.30
2018-07-21T23:25:42.996Z,24.20
2018-07-21T23:28:11.908Z,24.10
2018-07-21T23:30:40.842Z,24.20
2018-07-21T23:33:09.749Z,24.30
2018-07-21T23:35:38.668Z,24.00
2018-07-21T23:38:07.542Z,24.10
2018-07-21T23:40:36.480Z,24.40
2018-07-21T23:43:05.396Z,24.20
2018-07-21T23:45:34.300Z,24.00
2018-07-21T23:48:03.202Z,24.30
2018-07-21T23:50:32.114Z,24.40
2018-07-21T23:53:01.016Z,24.40
2018-07-21T23:55:29.929Z,24.30
2018-07-21T23:57:58.815Z,24.30
